Time;durP1;ratioP1;P1;durP2;ratioP2;P2;SDS_P1;SDS_P2;PMS_P1;PMS_P2;Temp;Humidity;BMP_temperature;BMP_pressure;BME280_temperature;BME280_humidity;BME280_pressure;Samples;Min_cycle;Max_cycle;Signal;HPM_P1;HPM_P2
2023/01/31 00:00:29;;;;;;;19.10;4.68;;;;;;;1.42;100.00;102457.50;5032629;28;20032;-50
2023/01/31 00:02:55;;;;;;;22.23;4.88;;;;;;;1.41;100.00;102455.75;5029070;28;20090;-52
2023/01/31 00:05:20;;;;;;;26.05;4.85;;;;;;;1.39;100.00;102450.53;5032414;28;20025;-52
2023/01/31 00:07:46;;;;;;;29.10;4.80;;;;;;;1.38;100.00;102459.31;5032877;28;20490;-51
2023/01/31 00:10:12;;;;;;;20.08;4.60;;;;;;;1.37;100.00;102456.69;5032575;28;20040;-53
2023/01/31 00:12:37;;;;;;;16.40;4.78;;;;;;;1.37;100.00;102469.78;5028723;28;20037;-54
2023/01/31 00:15:03;;;;;;;24.27;4.68;;;;;;;1.37;100.00;102464.56;5032546;28;20104;-53
2023/01/31 00:17:28;;;;;;;25.83;4.65;;;;;;;1.36;100.00;102468.03;5032012;28;20112;-52
2023/01/31 00:19:54;;;;;;;22.67;4.57;;;;;;;1.35;100.00;102475.03;5034723;28;20155;-53
2023/01/31 00:22:19;;;;;;;20.50;5.03;;;;;;;1.32;100.00;102475.06;5028542;28;20395;-51
2023/01/31 00:24:44;;;;;;;20.38;5.32;;;;;;;1.32;100.00;102472.47;5032448;28;20025;-54
2023/01/31 00:27:09;;;;;;;21.33;5.07;;;;;;;1.32;100.00;102476.84;5013239;28;20022;-53
2023/01/31 00:29:35;;;;;;;22.30;5.55;;;;;;;1.32;100.00;102477.69;5030741;28;20036;-52
2023/01/31 00:32:00;;;;;;;27.92;5.35;;;;;;;1.32;100.00;102474.22;5032172;28;20018;-54
2023/01/31 00:34:25;;;;;;;23.25;4.93;;;;;;;1.32;100.00;102482.06;5032085;28;20029;-54
2023/01/31 00:36:51;;;;;;;22.90;5.57;;;;;;;1.34;100.00;102472.44;5024594;28;20526;-51
2023/01/31 00:39:16;;;;;;;20.42;4.95;;;;;;;1.34;100.00;102473.31;5032062;28;20052;-52
2023/01/31 00:41:41;;;;;;;20.17;4.65;;;;;;;1.36;100.00;102462.81;5031967;28;20100;-51
2023/01/31 00:44:07;;;;;;;20.38;4.90;;;;;;;1.37;100.00;102459.31;5022799;28;20103;-53
2023/01/31 00:46:32;;;;;;;22.35;5.25;;;;;;;1.37;100.00;102461.94;5031990;28;20113;-53
2023/01/31 00:48:57;;;;;;;23.02;5.80;;;;;;;1.37;100.00;102460.19;5030500;28;20029;-53
2023/01/31 00:51:24;;;;;;;24.73;5.60;;;;;;;1.36;100.00;102452.34;5032271;28;20044;-51
2023/01/31 00:53:50;;;;;;;23.38;5.03;;;;;;;1.37;100.00;102454.94;5031303;28;20539;-51
2023/01/31 00:56:19;;;;;;;26.48;5.20;;;;;;;1.37;100.00;102451.47;5026365;28;20026;-51
2023/01/31 00:58:44;;;;;;;27.08;5.13;;;;;;;1.37;100.00;102441.00;5030630;28;20022;-53
2023/01/31 01:01:14;;;;;;;26.58;5.75;;;;;;;1.39;100.00;102453.16;5031591;28;20083;-51
2023/01/31 01:03:41;;;;;;;20.88;5.93;;;;;;;1.38;100.00;102446.22;5031783;28;20025;-51
2023/01/31 01:06:08;;;;;;;22.13;5.38;;;;;;;1.40;100.00;102454.03;5028449;28;20518;-51
2023/01/31 01:08:34;;;;;;;20.55;5.85;;;;;;;1.42;100.00;102454.91;5031807;28;20033;-54
2023/01/31 01:11:08;;;;;;;25.48;5.72;;;;;;;1.43;100.00;102443.50;5031738;28;20526;-54
2023/01/31 01:13:34;;;;;;;24.48;6.47;;;;;;;1.44;100.00;102445.25;5015218;28;20508;-51
2023/01/31 01:16:07;;;;;;;23.40;5.95;;;;;;;1.44;100.00;102430.41;5037451;28;20116;-52
2023/01/31 01:18:34;;;;;;;23.52;6.30;;;;;;;1.45;100.00;102426.06;5023406;28;20034;-52
2023/01/31 01:21:08;;;;;;;22.70;5.40;;;;;;;1.45;100.00;102423.44;5033390;28;20025;-51
2023/01/31 01:23:34;;;;;;;24.85;6.00;;;;;;;1.43;100.00;102415.59;5031827;28;20026;-53
2023/01/31 01:25:59;;;;;;;24.40;6.13;;;;;;;1.43;100.00;102415.59;5029977;28;20044;-53
2023/01/31 01:28:24;;;;;;;25.75;6.38;;;;;;;1.42;100.00;102410.38;5031809;28;20368;-52
2023/01/31 01:30:49;;;;;;;32.00;6.60;;;;;;;1.42;100.00;102418.25;5031311;28;20136;-52
2023/01/31 01:33:15;;;;;;;23.20;6.63;;;;;;;1.41;100.00;102417.34;5031815;28;20476;-55
2023/01/31 01:35:40;;;;;;;18.88;6.15;;;;;;;1.40;100.00;102414.75;5029893;28;20125;-51
2023/01/31 01:38:05;;;;;;;26.73;7.13;;;;;;;1.41;100.00;102406.03;5031755;28;20030;-53
2023/01/31 01:40:36;;;;;;;22.80;6.78;;;;;;;1.41;100.00;102411.25;5022490;28;20033;-51
2023/01/31 01:43:01;;;;;;;28.23;6.97;;;;;;;1.40;100.00;102414.75;5024033;28;20492;-53
2023/01/31 01:45:27;;;;;;;30.10;6.93;;;;;;;1.39;100.00;102407.81;5031164;28;20026;-54
2023/01/31 01:47:57;;;;;;;20.98;7.15;;;;;;;1.38;100.00;102412.19;5028699;28;20116;-53
2023/01/31 01:50:24;;;;;;;;;;;;;;;1.43;100.00;102406.84;5031507;28;20086;-54
2023/01/31 01:52:57;;;;;;;30.33;7.35;;;;;;;1.38;100.00;102409.56;5030812;28;19916;-54
2023/01/31 01:55:32;;;;;;;25.00;7.22;;;;;;;1.36;100.00;102397.38;5028948;28;20026;-54
2023/01/31 01:58:06;;;;;;;30.45;7.75;;;;;;;1.34;100.00;102394.75;5031388;28;20361;-53
2023/01/31 02:00:33;;;;;;;25.95;6.90;;;;;;;1.36;100.00;102392.13;5031449;28;20041;-52
2023/01/31 02:03:03;;;;;;;31.58;8.10;;;;;;;1.34;100.00;102400.00;5030270;28;20052;-52
2023/01/31 02:05:32;;;;;;;26.23;7.80;;;;;;;1.34;100.00;102399.16;5034996;28;20141;-51
2023/01/31 02:07:59;;;;;;;23.63;6.97;;;;;;;1.33;100.00;102406.09;5034533;28;20434;-53
2023/01/31 02:10:45;;;;;;;29.25;7.78;;;;;;;1.33;100.00;102407.88;5030852;28;20398;-54
2023/01/31 02:13:12;;;;;;;22.77;8.10;;;;;;;1.32;100.00;102419.25;5032393;28;20033;-55
2023/01/31 02:15:37;;;;;;;24.33;8.25;;;;;;;1.29;100.00;102417.53;5016917;28;20039;-53
2023/01/31 02:18:02;;;;;;;26.95;7.55;;;;;;;1.29;100.00;102407.03;5033462;28;20029;-55
2023/01/31 02:20:37;;;;;;;24.98;7.72;;;;;;;1.28;100.00;102413.16;5034189;28;20026;-55
2023/01/31 02:23:30;;;;;;;31.45;9.23;;;;;;;1.27;100.00;102411.44;5032241;28;20048;-51
2023/01/31 02:26:20;;;;;;;30.92;8.18;;;;;;;1.26;100.00;102421.03;5024041;28;20040;-53
2023/01/31 02:28:48;;;;;;;22.90;8.48;;;;;;;1.24;100.00;102420.19;5034740;28;20036;-55
2023/01/31 02:31:24;;;;;;;22.90;9.27;;;;;;;1.23;100.00;102426.31;5034319;28;20056;-53
2023/01/31 02:34:15;;;;;;;29.80;8.65;;;;;;;1.24;100.00;102422.81;5034532;28;20029;-54
2023/01/31 02:36:52;;;;;;;23.80;7.93;;;;;;;1.21;100.00;102412.38;5028813;28;20025;-55
2023/01/31 02:39:27;;;;;;;32.25;9.80;;;;;;;1.21;100.00;102417.59;5035879;28;20052;-52
2023/01/31 02:42:05;;;;;;;31.10;8.90;;;;;;;1.22;100.00;102405.41;5034310;28;20045;-55
2023/01/31 02:45:00;;;;;;;35.28;9.30;;;;;;;1.22;100.00;102405.41;5027154;28;20057;-52
2023/01/31 02:47:52;;;;;;;32.25;8.65;;;;;;;1.23;100.00;102401.88;5031857;28;20029;-56
2023/01/31 02:50:39;;;;;;;33.03;9.57;;;;;;;1.23;100.00;102410.63;5032840;28;20028;-55
2023/01/31 02:53:16;;;;;;;30.25;9.63;;;;;;;1.24;100.00;102404.47;5033644;28;20037;-53
2023/01/31 02:56:18;;;;;;;29.08;9.88;;;;;;;1.27;100.00;102420.16;5034024;28;20029;-52
2023/01/31 02:58:50;;;;;;;35.22;10.65;;;;;;;1.27;100.00;102414.91;5030803;28;20018;-53
2023/01/31 03:01:21;;;;;;;32.97;10.48;;;;;;;1.27;100.00;102411.44;5029160;28;20479;-51
2023/01/31 03:03:47;;;;;;;35.90;11.15;;;;;;;1.31;100.00;102412.28;5030123;28;20029;-55
2023/01/31 03:06:22;;;;;;;28.05;10.75;;;;;;;1.31;100.00;102420.13;5033875;28;20044;-56
2023/01/31 03:08:56;;;;;;;29.95;10.55;;;;;;;1.31;100.00;102405.28;5032528;28;20037;-54
2023/01/31 03:11:26;;;;;;;32.38;11.88;;;;;;;1.35;100.00;102413.94;5026974;28;20045;-55
2023/01/31 03:14:17;;;;;;;41.70;11.70;;;;;;;1.36;100.00;102400.84;5033586;28;20484;-53
2023/01/31 03:19:52;;;;;;;32.83;11.20;;;;;;;1.38;100.00;102395.59;5034125;28;20040;-54
2023/01/31 03:22:25;;;;;;;37.40;11.93;;;;;;;1.39;100.00;102392.09;5032608;28;20365;-51
2023/01/31 03:24:51;;;;;;;29.60;11.20;;;;;;;1.40;100.00;102391.19;5034075;28;20116;-54
2023/01/31 03:27:17;;;;;;;30.52;12.63;;;;;;;1.42;100.00;102386.81;5039717;28;20483;-56
2023/01/31 03:29:42;;;;;;;44.78;13.10;;;;;;;1.44;100.00;102393.75;5040013;28;20033;-56
2023/01/31 03:32:19;;;;;;;34.05;11.85;;;;;;;1.45;100.00;102392.03;5028731;28;20044;-54
2023/01/31 03:34:45;;;;;;;28.58;12.45;;;;;;;1.46;100.00;102385.88;5032680;28;20037;-54
2023/01/31 03:37:19;;;;;;;37.38;12.13;;;;;;;1.47;100.00;102392.84;5029023;28;20393;-56
2023/01/31 03:40:06;;;;;;;32.53;13.65;;;;;;;1.49;100.00;102388.47;5029861;28;20033;-57
2023/01/31 03:42:54;;;;;;;30.48;13.23;;;;;;;1.51;100.00;102381.44;5032922;28;20045;-53
2023/01/31 03:45:22;;;;;;;33.40;13.20;;;;;;;1.51;100.00;102381.44;5032891;28;20479;-55
2023/01/31 03:47:50;;;;;;;41.17;13.32;;;;;;;1.53;100.00;102374.41;5022842;28;20048;-56
2023/01/31 03:50:20;;;;;;;33.80;13.75;;;;;;;1.53;100.00;102377.03;5042392;28;20045;-56
2023/01/31 03:52:53;;;;;;;33.88;13.13;;;;;;;1.57;100.00;102370.03;5029627;28;20044;-54
2023/01/31 03:55:26;;;;;;;43.75;15.60;;;;;;;1.60;100.00;102377.81;5030892;28;20083;-56
2023/01/31 03:57:55;;;;;;;40.60;14.32;;;;;;;1.61;100.00;102369.09;5029234;28;20029;-54
2023/01/31 04:00:23;;;;;;;34.27;14.57;;;;;;;1.63;100.00;102368.19;5031953;28;20100;-56
2023/01/31 04:03:26;;;;;;;29.80;13.82;;;;;;;1.65;100.00;102374.25;5032610;28;20052;-55
2023/01/31 04:05:52;;;;;;;43.88;14.73;;;;;;;1.69;100.00;102371.59;4953625;28;20042;-52
2023/01/31 04:08:18;;;;;;;37.75;14.15;;;;;;;1.69;100.00;102367.22;5014939;28;20448;-56
2023/01/31 04:10:43;;;;;;;35.58;14.05;;;;;;;1.71;100.00;102368.06;5032773;28;20052;-54
2023/01/31 04:13:08;;;;;;;30.83;14.57;;;;;;;1.72;100.00;102371.56;5029673;28;20060;-56
2023/01/31 04:15:33;;;;;;;35.63;13.60;;;;;;;1.70;100.00;102368.97;5023555;28;20033;-55
2023/01/31 04:17:59;;;;;;;38.20;13.85;;;;;;;1.71;100.00;102360.19;5032050;28;20100;-55
2023/01/31 04:20:24;;;;;;;43.08;13.20;;;;;;;1.72;100.00;102369.78;5014271;28;20364;-54
2023/01/31 04:22:49;;;;;;;36.20;13.13;;;;;;;1.72;100.00;102364.56;5031875;28;20030;-55
2023/01/31 04:25:15;;;;;;;35.13;12.82;;;;;;;1.72;100.00;102361.94;5032336;28;20028;-56
2023/01/31 04:27:40;;;;;;;40.33;14.13;;;;;;;1.72;100.00;102364.56;5029960;28;20471;-53
2023/01/31 04:30:06;;;;;;;33.90;14.07;;;;;;;1.73;100.00;102363.66;5032230;28;20026;-54
2023/01/31 04:32:32;;;;;;;28.95;13.90;;;;;;;1.72;100.00;102359.31;5030596;28;20032;-57
2023/01/31 04:34:57;;;;;;;33.70;13.73;;;;;;;1.72;100.00;102353.22;5021975;28;20387;-56
2023/01/31 04:37:22;;;;;;;31.45;13.23;;;;;;;1.72;100.00;102350.59;5031785;28;20360;-56
2023/01/31 04:39:48;;;;;;;38.13;14.15;;;;;;;1.70;100.00;102355.88;5032189;28;20040;-55
2023/01/31 04:42:13;;;;;;;36.05;13.43;;;;;;;1.70;100.00;102353.25;5022824;28;20041;-55
2023/01/31 04:44:38;;;;;;;32.90;12.88;;;;;;;1.70;100.00;102353.25;5032194;28;20444;-56
2023/01/31 04:47:04;;;;;;;38.33;14.30;;;;;;;1.68;100.00;102352.38;5022375;28;20092;-56
2023/01/31 04:49:29;;;;;;;36.13;13.63;;;;;;;1.67;100.00;102354.16;5032015;28;20029;-55
2023/01/31 04:51:54;;;;;;;38.35;13.38;;;;;;;1.65;100.00;102350.69;5028235;28;20030;-54
2023/01/31 04:54:20;;;;;;;30.10;12.80;;;;;;;1.65;100.00;102344.59;5031929;28;20025;-55
2023/01/31 04:56:45;;;;;;;32.25;13.43;;;;;;;1.62;100.00;102340.25;5031700;28;20513;-52
2023/01/31 04:59:11;;;;;;;31.10;13.57;;;;;;;1.64;100.00;102340.22;5031794;28;20095;-56
2023/01/31 05:01:36;;;;;;;30.95;13.50;;;;;;;1.62;100.00;102334.16;5027771;28;20038;-54
2023/01/31 05:04:01;;;;;;;31.02;13.40;;;;;;;1.62;100.00;102332.41;5030701;28;20029;-55
2023/01/31 05:06:26;;;;;;;36.65;13.32;;;;;;;1.63;100.00;102326.28;5031991;28;20037;-53
2023/01/31 05:08:53;;;;;;;32.80;12.80;;;;;;;1.63;100.00;102323.66;5031464;28;20485;-52
2023/01/31 05:11:19;;;;;;;28.13;13.60;;;;;;;1.63;100.00;102310.56;5031660;28;20034;-54
2023/01/31 05:13:44;;;;;;;31.98;13.82;;;;;;;1.65;100.00;102318.41;5025716;28;20029;-53
2023/01/31 05:16:11;;;;;;;32.78;13.05;;;;;;;1.66;100.00;102314.88;5027235;28;20091;-53
2023/01/31 05:18:37;;;;;;;35.45;14.55;;;;;;;1.67;100.00;102307.00;5029124;28;20476;-55
2023/01/31 05:21:04;;;;;;;33.80;13.75;;;;;;;1.71;100.00;102314.81;5026935;28;20509;-56
2023/01/31 05:23:30;;;;;;;40.88;13.18;;;;;;;1.72;100.00;102299.06;5013676;28;20117;-52
2023/01/31 05:25:56;;;;;;;30.77;12.32;;;;;;;1.74;100.00;102305.16;5031856;28;20076;-53
2023/01/31 05:28:24;;;;;;;36.67;13.30;;;;;;;1.76;100.00;102300.75;5021653;28;20228;-55
2023/01/31 05:30:49;;;;;;;34.00;12.88;;;;;;;1.79;100.00;102294.59;5031427;28;20468;-54
2023/01/31 05:33:15;;;;;;;30.50;12.98;;;;;;;1.81;100.00;102300.66;5040558;28;20055;-55
2023/01/31 05:35:41;;;;;;;32.00;12.43;;;;;;;1.84;100.00;102303.25;5026422;28;20018;-52
2023/01/31 05:38:07;;;;;;;30.10;13.50;;;;;;;1.85;100.00;102305.84;5032381;28;20103;-57
2023/01/31 05:40:32;;;;;;;30.65;13.32;;;;;;;1.85;100.00;102282.25;5038654;28;20057;-56
2023/01/31 05:43:01;;;;;;;35.83;13.65;;;;;;;1.87;100.00;102286.63;5032507;28;20056;-54
2023/01/31 05:45:27;;;;;;;32.15;12.80;;;;;;;1.88;100.00;102278.72;5032738;28;20040;-52
2023/01/31 05:47:53;;;;;;;32.78;12.02;;;;;;;1.87;100.00;102286.63;5035285;28;20098;-53
2023/01/31 05:50:20;;;;;;;32.22;12.45;;;;;;;1.88;100.00;102289.19;5033629;28;20032;-54
2023/01/31 05:52:58;;;;;;;32.92;12.63;;;;;;;1.89;100.00;102290.94;5035340;28;20026;-54
2023/01/31 05:55:24;;;;;;;33.00;12.23;;;;;;;1.91;100.00;102280.44;5035272;28;20092;-56
2023/01/31 05:57:52;;;;;;;32.67;12.77;;;;;;;1.89;100.00;102277.84;5029558;28;20101;-52
2023/01/31 06:00:18;;;;;;;37.05;11.73;;;;;;;1.91;100.00;102281.28;5032685;28;20052;-54
2023/01/31 06:02:43;;;;;;;28.13;11.93;;;;;;;1.92;100.00;102280.41;5035050;28;20060;-54
2023/01/31 06:05:10;;;;;;;27.83;11.90;;;;;;;1.93;100.00;102290.00;5025570;28;20033;-55
2023/01/31 06:07:35;;;;;;;30.73;11.35;;;;;;;1.96;100.00;102296.94;5034729;28;20048;-54
2023/01/31 06:10:01;;;;;;;34.58;11.70;;;;;;;1.97;100.00;102296.06;5043165;28;20471;-57
2023/01/31 06:12:27;;;;;;;30.17;11.07;;;;;;;1.96;100.00;102289.06;5034837;28;20021;-56
2023/01/31 06:14:53;;;;;;;28.50;10.98;;;;;;;1.99;100.00;102294.25;5026717;28;20326;-52
2023/01/31 06:17:18;;;;;;;31.70;11.20;;;;;;;1.99;100.00;102282.00;5034680;28;20692;-55
2023/01/31 06:19:43;;;;;;;26.83;11.13;;;;;;;2.00;100.00;102290.75;5034394;28;20037;-55
2023/01/31 06:22:09;;;;;;;36.30;12.48;;;;;;;2.02;100.00;102289.81;5032058;28;20033;-54
2023/01/31 06:24:34;;;;;;;30.13;11.45;;;;;;;2.03;100.00;102278.47;5031585;28;20049;-54
2023/01/31 06:27:00;;;;;;;29.23;11.10;;;;;;;2.06;100.00;102301.13;5034513;28;20083;-53
2023/01/31 06:29:25;;;;;;;26.77;10.15;;;;;;;2.07;100.00;102300.25;5032997;28;20044;-56
2023/01/31 06:31:52;;;;;;;30.75;11.05;;;;;;;2.08;100.00;102290.59;5034560;28;20468;-54
2023/01/31 06:34:18;;;;;;;30.80;11.05;;;;;;;2.11;100.00;102285.31;5034060;28;20427;-55
2023/01/31 06:36:43;;;;;;;29.25;10.48;;;;;;;2.11;100.00;102290.56;5028826;28;20025;-52
2023/01/31 06:39:11;;;;;;;33.10;10.63;;;;;;;2.13;100.00;102284.41;5031314;28;20390;-56
2023/01/31 06:41:36;;;;;;;24.63;10.43;;;;;;;2.15;100.00;102279.09;5034290;28;20032;-54
2023/01/31 06:44:01;;;;;;;26.27;11.00;;;;;;;2.16;100.00;102280.84;5033380;28;20038;-55
2023/01/31 06:46:27;;;;;;;28.55;10.07;;;;;;;2.18;100.00;102282.56;5027645;28;20041;-56
2023/01/31 06:48:52;;;;;;;30.13;9.30;;;;;;;2.19;100.00;102267.69;5033627;28;20022;-52
2023/01/31 06:51:17;;;;;;;26.80;10.15;;;;;;;2.21;100.00;102271.13;5032981;28;20041;-56
2023/01/31 06:53:42;;;;;;;25.73;9.63;;;;;;;2.24;100.00;102265.00;5033422;28;20365;-55
2023/01/31 06:56:08;;;;;;;31.08;10.23;;;;;;;2.25;100.00;102267.59;5034160;28;20140;-54
2023/01/31 06:58:34;;;;;;;23.50;9.30;;;;;;;2.28;100.00;102272.78;5033232;28;20021;-56
2023/01/31 07:01:08;;;;;;;25.45;10.63;;;;;;;2.29;100.00;102264.00;5022263;28;20376;-56
2023/01/31 07:03:34;;;;;;;26.40;9.57;;;;;;;2.32;100.00;102263.09;5029463;28;20097;-54
2023/01/31 07:05:59;;;;;;;25.42;9.48;;;;;;;2.33;100.00;102268.31;5032837;28;20053;-54
2023/01/31 07:08:24;;;;;;;24.45;10.32;;;;;;;2.33;100.00;102257.81;5028599;28;20510;-56
2023/01/31 07:10:50;;;;;;;24.52;9.93;;;;;;;2.36;100.00;102262.13;5032391;28;20021;-56
2023/01/31 07:13:15;;;;;;;31.05;10.77;;;;;;;2.37;100.00;102256.00;5031508;28;20389;-57
2023/01/31 07:15:41;;;;;;;27.20;9.90;;;;;;;2.37;100.00;102262.09;5032225;28;20063;-54
2023/01/31 07:18:06;;;;;;;28.75;9.55;;;;;;;2.38;100.00;102248.09;5020170;28;20144;-56
2023/01/31 07:20:31;;;;;;;27.15;8.63;;;;;;;2.42;100.00;102259.38;5031851;28;20057;-56
2023/01/31 07:22:57;;;;;;;25.73;8.63;;;;;;;2.45;100.00;102247.97;5028234;28;20026;-56
2023/01/31 07:25:24;;;;;;;28.05;9.20;;;;;;;2.48;100.00;102253.16;5024415;28;20064;-57
2023/01/31 07:27:50;;;;;;;23.85;8.90;;;;;;;2.52;100.00;102249.59;5023610;28;20034;-56
2023/01/31 07:30:15;;;;;;;32.13;8.65;;;;;;;2.56;100.00;102240.75;5020358;28;20034;-56
2023/01/31 07:32:40;;;;;;;24.30;8.45;;;;;;;2.59;100.00;102240.69;5014658;28;20080;-57
2023/01/31 07:35:06;;;;;;;26.33;8.75;;;;;;;2.65;100.00;102250.19;5017947;28;20033;-57
2023/01/31 07:37:32;;;;;;;31.83;9.10;;;;;;;2.69;100.00;102233.50;5018735;28;20040;-56
2023/01/31 07:39:57;;;;;;;30.48;9.38;;;;;;;2.72;100.00;102244.78;5019304;28;20037;-56
2023/01/31 07:42:23;;;;;;;25.17;8.02;;;;;;;2.77;100.00;102234.19;5019888;28;20416;-53
2023/01/31 07:44:48;;;;;;;27.40;7.97;;;;;;;2.80;100.00;102233.25;5018378;28;20092;-53
2023/01/31 07:47:13;;;;;;;26.33;8.60;;;;;;;2.83;100.00;102239.31;5015955;28;20404;-56
2023/01/31 07:49:38;;;;;;;20.63;7.85;;;;;;;2.84;100.00;102246.28;5022096;28;20030;-56
2023/01/31 07:52:04;;;;;;;21.20;8.18;;;;;;;2.84;100.00;102227.91;5019033;28;20116;-56
2023/01/31 07:54:29;;;;;;;23.95;7.95;;;;;;;2.86;100.00;102220.00;5019823;28;20051;-56
2023/01/31 07:56:54;;;;;;;25.13;9.40;;;;;;;2.87;100.00;102217.34;5018833;28;20033;-54
2023/01/31 07:59:20;;;;;;;26.02;8.45;;;;;;;2.89;100.00;102217.31;5016727;28;20073;-56
2023/01/31 08:04:29;;;;;;;19.85;7.53;;;;;;;2.92;100.00;102222.50;5027874;28;20056;-54
2023/01/31 08:06:55;;;;;;;20.05;7.47;;;;;;;2.92;100.00;102212.84;5027868;28;20021;-56
2023/01/31 08:09:21;;;;;;;29.33;7.88;;;;;;;2.93;100.00;102211.09;5025811;28;20083;-56
2023/01/31 08:11:47;;;;;;;27.17;8.43;;;;;;;2.96;100.00;102203.16;5026285;28;20033;-57
2023/01/31 08:14:13;;;;;;;24.30;7.97;;;;;;;2.96;100.00;102190.91;5020119;28;20026;-57
2023/01/31 08:16:38;;;;;;;21.60;8.32;;;;;;;2.99;100.00;102208.31;5019286;28;20022;-55
2023/01/31 08:19:04;;;;;;;24.20;8.20;;;;;;;3.01;100.00;102198.66;5013399;28;20400;-57
2023/01/31 08:21:29;;;;;;;24.42;7.82;;;;;;;3.05;100.00;102197.69;5015205;28;20157;-56
2023/01/31 08:23:55;;;;;;;24.13;8.02;;;;;;;3.07;100.00;102201.13;5016094;28;20025;-57
2023/01/31 08:26:21;;;;;;;30.88;8.63;;;;;;;3.12;100.00;102206.28;5016737;28;20033;-57
2023/01/31 08:28:48;;;;;;;23.45;7.45;;;;;;;3.13;100.00;102197.50;5016831;28;20504;-57
2023/01/31 08:31:19;;;;;;;22.52;7.80;;;;;;;3.18;100.00;102189.50;5020037;28;20471;-57
2023/01/31 08:33:45;;;;;;;23.02;7.75;;;;;;;3.23;100.00;102191.16;5028209;28;20022;-56
2023/01/31 08:36:19;;;;;;;21.60;7.30;;;;;;;3.29;100.00;102169.97;5031775;28;20468;-57
2023/01/31 08:38:45;;;;;;;18.92;7.43;;;;;;;3.32;100.00;102184.81;5029577;28;20387;-57
2023/01/31 08:41:11;;;;;;;20.55;7.85;;;;;;;3.35;100.00;102179.47;5030477;28;20030;-55
2023/01/31 08:43:37;;;;;;;25.25;7.38;;;;;;;3.39;100.00;102178.50;5024361;28;20219;-57
2023/01/31 08:46:03;;;;;;;21.33;7.28;;;;;;;3.43;100.00;102166.13;5027931;28;20492;-56
2023/01/31 08:48:34;;;;;;;27.58;8.63;;;;;;;3.46;100.00;102169.53;5031938;28;20383;-57
2023/01/31 08:51:05;;;;;;;23.55;7.47;;;;;;;3.49;100.00;102177.34;5028273;28;20147;-56
2023/01/31 08:53:31;;;;;;;25.42;7.95;;;;;;;3.51;100.00;102166.81;5020068;28;20029;-56
2023/01/31 08:56:01;;;;;;;20.52;7.50;;;;;;;3.54;100.00;102176.38;5013794;28;20026;-57
2023/01/31 08:58:26;;;;;;;26.13;7.03;;;;;;;3.56;100.00;102164.91;5017219;28;20432;-64
2023/01/31 09:00:52;;;;;;;20.73;6.97;;;;;;;3.58;100.00;102155.25;5023213;28;20021;-56
2023/01/31 09:03:17;;;;;;;22.98;7.30;;;;;;;3.63;100.00;102155.13;5030804;28;20025;-56
2023/01/31 09:05:43;;;;;;;20.17;6.93;;;;;;;3.66;100.00;102158.53;5026764;28;20033;-56
2023/01/31 09:08:09;;;;;;;18.17;6.40;;;;;;;3.70;100.00;102148.81;5015840;28;20583;-56
2023/01/31 09:10:34;;;;;;;22.67;7.13;;;;;;;3.75;100.00;102143.41;5025646;28;20109;-56
2023/01/31 09:13:00;;;;;;;22.13;7.35;;;;;;;3.79;100.00;102151.16;5023673;28;20381;-56
2023/01/31 09:15:25;;;;;;;23.48;7.30;;;;;;;3.83;100.00;102152.84;5032033;28;20032;-55
2023/01/31 09:17:51;;;;;;;28.75;7.90;;;;;;;3.86;100.00;102158.00;5029852;28;20022;-58
2023/01/31 09:20:17;;;;;;;22.33;7.15;;;;;;;3.91;100.00;102154.38;5034661;28;20057;-57
2023/01/31 09:22:42;;;;;;;23.55;7.45;;;;;;;3.94;100.00;102146.41;5035793;28;20058;-57
2023/01/31 09:25:08;;;;;;;21.92;6.50;;;;;;;3.99;100.00;102141.88;5033108;28;20025;-57
2023/01/31 09:27:34;;;;;;;21.63;6.90;;;;;;;4.03;100.00;102144.38;5031543;28;20044;-57
2023/01/31 09:29:59;;;;;;;18.10;6.32;;;;;;;4.08;100.00;102126.72;5034058;28;20057;-56
2023/01/31 09:32:25;;;;;;;22.00;6.30;;;;;;;4.16;100.00;102128.25;5032933;28;20057;-57
2023/01/31 09:34:50;;;;;;;21.73;6.72;;;;;;;4.24;100.00;102124.47;5016471;28;20060;-57
2023/01/31 09:37:16;;;;;;;23.20;7.32;;;;;;;4.34;100.00;102121.59;5033993;28;20022;-57
2023/01/31 09:39:41;;;;;;;24.25;6.97;;;;;;;4.42;100.00;102132.75;5034132;28;20083;-57
2023/01/31 09:42:18;;;;;;;24.08;6.78;;;;;;;4.49;100.00;102133.44;5031615;28;20360;-56
2023/01/31 09:44:54;;;;;;;19.60;6.07;;;;;;;4.56;100.00;102129.69;5031741;28;20384;-55
2023/01/31 09:47:27;;;;;;;16.27;5.93;;;;;;;4.62;100.00;102125.09;5033885;28;20029;-56
2023/01/31 09:50:20;;;;;;;25.92;6.72;;;;;;;4.71;100.00;102131.84;5029054;28;20033;-57
2023/01/31 09:52:45;;;;;;;19.30;6.53;;;;;;;4.83;100.00;102122.72;5033788;28;20380;-56
2023/01/31 09:55:22;;;;;;;20.00;7.15;;;;;;;4.95;100.00;102114.41;5034154;28;20109;-57
2023/01/31 09:58:02;;;;;;;22.13;6.70;;;;;;;5.08;100.00;102125.41;5026175;28;20464;-57
2023/01/31 10:00:32;;;;;;;20.20;7.00;;;;;;;5.20;100.00;102121.50;5030766;28;20034;-56
2023/01/31 10:03:17;;;;;;;18.55;6.57;;;;;;;5.30;100.00;102127.34;5033670;28;20021;-57
2023/01/31 10:06:13;;;;;;;22.38;7.35;;;;;;;5.32;100.00;102136.03;5030788;28;20021;-57
2023/01/31 10:09:04;;;;;;;17.23;6.30;;;;;;;5.34;100.00;102134.19;5016084;28;20040;-55
2023/01/31 10:11:36;;;;;;;21.20;6.88;;;;;;;5.34;100.00;102142.97;5037466;28;20021;-56
2023/01/31 10:14:27;;;;;;;23.10;6.85;;;;;;;5.34;100.00;102132.41;5033566;28;20034;-56
2023/01/31 10:17:26;;;;;;;23.60;7.63;;;;;;;5.37;100.00;102139.38;5034598;28;20017;-57
2023/01/31 10:20:06;;;;;;;18.70;7.18;;;;;;;5.37;100.00;102119.16;5028686;28;20028;-56
2023/01/31 10:22:44;;;;;;;22.50;7.80;;;;;;;5.36;100.00;102124.47;5014624;28;20499;-54
2023/01/31 10:25:31;;;;;;;19.23;8.73;;;;;;;5.36;100.00;102103.38;5014330;28;20038;-56
2023/01/31 10:28:05;;;;;;;18.20;7.80;;;;;;;5.36;100.00;102109.53;5018721;28;20030;-56
2023/01/31 10:30:55;;;;;;;28.67;10.57;;;;;;;5.38;100.00;102097.16;5022029;28;20038;-53
2023/01/31 10:33:29;;;;;;;22.65;9.90;;;;;;;5.36;100.00;102114.81;5027800;28;20050;-56
2023/01/31 10:36:00;;;;;;;30.05;11.13;;;;;;;5.36;100.00;102127.97;5029757;28;20037;-58
2023/01/31 10:38:31;;;;;;;28.23;11.82;;;;;;;5.36;100.00;102130.63;5016873;28;20026;-56
2023/01/31 10:41:08;;;;;;;27.83;12.43;;;;;;;5.38;100.00;102127.94;5017701;28;20068;-58
2023/01/31 10:43:57;;;;;;;30.83;12.65;;;;;;;5.42;100.00;102139.22;5016662;28;20048;-57
2023/01/31 10:46:23;;;;;;;27.17;14.07;;;;;;;5.44;100.00;102126.84;5015596;28;20044;-58
2023/01/31 10:48:48;;;;;;;30.58;13.70;;;;;;;5.47;100.00;102127.59;5028054;28;20017;-58
2023/01/31 10:51:33;;;;;;;24.75;14.38;;;;;;;5.53;100.00;102119.50;5021010;28;20071;-58
2023/01/31 10:54:26;;;;;;;28.65;14.02;;;;;;;5.58;100.00;102111.44;5023477;28;20392;-57
2023/01/31 10:56:52;;;;;;;29.30;14.50;;;;;;;5.58;100.00;102092.97;5014162;28;20045;-55
2023/01/31 10:59:26;;;;;;;28.60;15.00;;;;;;;5.61;100.00;102105.19;5010560;28;20026;-55
2023/01/31 11:01:51;;;;;;;25.77;14.98;;;;;;;5.62;100.00;102089.31;5013943;28;20042;-54
2023/01/31 11:04:39;;;;;;;25.95;14.65;;;;;;;5.64;100.00;102094.53;5015662;28;20022;-57
2023/01/31 11:07:05;;;;;;;25.42;14.57;;;;;;;5.70;100.00;102089.03;5022954;28;20036;-56
2023/01/31 11:09:35;;;;;;;26.90;14.02;;;;;;;5.74;100.00;102090.63;5026749;28;20025;-56
2023/01/31 11:12:03;;;;;;;26.45;13.48;;;;;;;5.79;100.00;102098.38;5025130;28;20522;-56
2023/01/31 11:14:30;;;;;;;25.65;12.85;;;;;;;5.81;100.00;102084.25;5014576;28;20376;-57
2023/01/31 11:17:23;;;;;;;26.00;13.15;;;;;;;5.88;100.00;102067.28;5032388;28;20403;-56
2023/01/31 11:19:54;;;;;;;24.33;12.43;;;;;;;5.91;100.00;102075.06;5025874;28;20180;-56
2023/01/31 11:22:34;;;;;;;27.25;13.35;;;;;;;5.99;100.00;102066.03;5031148;28;20056;-56
2023/01/31 11:25:03;;;;;;;21.92;12.73;;;;;;;6.01;100.00;102069.47;5032626;28;20096;-57
2023/01/31 11:27:40;;;;;;;26.40;12.35;;;;;;;6.05;100.00;102040.28;5032697;28;20475;-54
2023/01/31 11:30:20;;;;;;;25.88;12.80;;;;;;;6.12;100.00;102051.47;5027843;28;20430;-57